Time;durP1;ratioP1;P1;durP2;ratioP2;P2;SDS_P1;SDS_P2;PMS_P1;PMS_P2;Temp;Humidity;BMP_temperature;BMP_pressure;BME280_temperature;BME280_humidity;BME280_pressure;Samples;Min_cycle;Max_cycle;Signal;HPM_P1;HPM_P2
2021/06/17 02:58:35;;;;;;;42.40;33.50;;;16.90;99.90;;;;;;6087656;23;20439;31
2021/06/17 03:01:11;;;;;;;42.07;31.90;;;16.90;99.90;;;;;;6035871;23;20432;-79
2021/06/17 03:03:43;;;;;;;40.20;33.90;;;16.80;99.90;;;;;;6039938;23;20405;-78
2021/06/17 03:06:14;;;;;;;39.10;35.10;;;16.70;99.90;;;;;;6038821;23;20441;-78
2021/06/17 03:08:47;;;;;;;43.00;38.37;;;16.70;99.90;;;;;;6040742;23;20405;-79
2021/06/17 03:11:16;;;;;;;39.87;35.93;;;16.60;99.90;;;;;;6049796;23;20733;-79
2021/06/17 03:13:47;;;;;;;50.23;41.10;;;16.50;99.90;;;;;;6040245;23;20408;-78
2021/06/17 03:16:31;;;;;;;47.03;42.67;;;16.50;99.90;;;;;;6040411;23;20398;-78
2021/06/17 03:19:00;;;;;;;45.53;40.93;;;16.40;99.90;;;;;;6039390;23;20408;-78
2021/06/17 03:21:30;;;;;;;49.83;45.10;;;16.50;99.90;;;;;;6040194;23;20410;-78
2021/06/17 03:23:58;;;;;;;49.47;45.27;;;16.50;99.90;;;;;;6040176;23;20729;-78
2021/06/17 03:26:27;;;;;;;44.17;40.00;;;16.60;99.90;;;;;;6039277;23;20448;-78
2021/06/17 03:28:56;;;;;;;46.00;41.67;;;16.70;99.90;;;;;;6040550;23;20416;-78
2021/06/17 03:31:26;;;;;;;38.50;34.50;;;16.80;99.90;;;;;;6040005;23;20426;-78
2021/06/17 03:33:55;;;;;;;34.43;29.53;;;16.70;99.90;;;;;;6049162;23;20415;-80
2021/06/17 03:36:23;;;;;;;36.13;28.07;;;16.80;99.90;;;;;;6038659;23;20890;-79
2021/06/17 03:38:52;;;;;;;34.17;25.67;;;16.80;99.90;;;;;;6040041;23;20437;-78
2021/06/17 03:41:19;;;;;;;37.83;30.00;;;16.80;99.90;;;;;;6039859;23;20916;-79
2021/06/17 03:43:48;;;;;;;38.67;27.70;;;16.80;99.90;;;;;;6040253;23;20497;-79
2021/06/17 03:46:15;;;;;;;41.13;29.40;;;16.70;99.90;;;;;;6040316;23;20778;-78
2021/06/17 03:48:45;;;;;;;35.73;30.60;;;16.80;99.90;;;;;;6039998;23;20405;-80
2021/06/17 03:51:13;;;;;;;43.13;34.50;;;16.70;99.90;;;;;;6038342;23;20410;-78
2021/06/17 03:53:41;;;;;;;45.53;39.43;;;16.80;99.90;;;;;;6039773;23;20413;-79
2021/06/17 03:56:08;;;;;;;50.07;45.30;;;16.80;99.90;;;;;;6039873;23;20410;-79
2021/06/17 03:58:36;;;;;;;47.83;43.33;;;17.10;99.90;;;;;;6039860;23;20439;-79
2021/06/17 04:01:06;;;;;;;39.27;34.93;;;17.20;99.90;;;;;;6065372;23;20512;-79
2021/06/17 04:03:34;;;;;;;36.50;31.00;;;17.40;99.90;;;;;;6068387;23;20460;-78
2021/06/17 04:06:02;;;;;;;35.97;25.40;;;17.60;99.90;;;;;;6066876;23;20472;-79
2021/06/17 04:08:32;;;;;;;39.30;25.50;;;17.70;99.90;;;;;;6068556;23;20401;-79
2021/06/17 04:11:02;;;;;;;40.00;25.67;;;17.70;99.90;;;;;;6068203;23;20405;-79
2021/06/17 04:13:33;;;;;;;37.20;23.43;;;17.70;99.90;;;;;;6068624;23;20432;-80
2021/06/17 04:16:01;;;;;;;36.37;20.70;;;17.80;99.90;;;;;;6078005;23;20950;-80
2021/06/17 04:18:29;;;;;;;34.63;17.30;;;17.90;99.90;;;;;;6077355;23;20734;-80
2021/06/17 04:20:58;;;;;;;34.73;16.30;;;18.00;99.90;;;;;;6066906;23;20930;-79
2021/06/17 04:23:29;;;;;;;34.33;16.47;;;18.20;99.90;;;;;;6068312;23;20493;-79
2021/06/17 04:25:57;;;;;;;36.90;16.70;;;18.30;99.90;;;;;;6068068;23;20444;-79
2021/06/17 04:28:28;;;;;;;40.80;16.10;;;18.40;99.90;;;;;;6068411;23;20433;-79
2021/06/17 04:30:57;;;;;;;38.13;14.87;;;18.40;99.90;;;;;;6067866;23;20459;-79
2021/06/17 04:33:25;;;;;;;36.07;14.33;;;18.50;99.90;;;;;;6067808;23;20484;-78
2021/06/17 04:36:00;;;;;;;36.37;15.90;;;18.50;99.90;;;;;;6066831;23;20778;-82
2021/06/17 04:38:28;;;;;;;37.47;15.93;;;18.70;99.90;;;;;;6077349;23;20436;-81
2021/06/17 04:40:56;;;;;;;38.17;15.70;;;18.60;99.90;;;;;;6077718;23;20500;-81
2021/06/17 04:43:23;;;;;;;45.43;16.30;;;18.60;99.90;;;;;;6068260;23;20411;-79
2021/06/17 04:45:52;;;;;;;36.63;14.80;;;18.90;99.90;;;;;;6068182;23;20486;-79
2021/06/17 04:48:19;;;;;;;36.47;13.57;;;18.80;99.90;;;;;;6068653;23;20409;-79
2021/06/17 04:50:46;;;;;;;35.33;13.17;;;18.90;99.90;;;;;;6066935;23;20881;-78
2021/06/17 04:53:16;;;;;;;39.93;14.50;;;19.10;99.90;;;;;;6068032;23;20415;-78
2021/06/17 04:55:47;;;;;;;36.90;13.77;;;19.10;99.90;;;;;;6068579;23;20787;-78
2021/06/17 04:58:14;;;;;;;38.67;14.10;;;19.20;99.90;;;;;;6067992;23;20468;-79
2021/06/17 05:00:41;;;;;;;39.37;13.47;;;19.40;99.90;;;;;;6068168;23;20504;-78
2021/06/17 05:03:08;;;;;;;42.90;14.40;;;19.60;99.90;;;;;;6068393;23;20415;-79
2021/06/17 05:05:35;;;;;;;38.00;11.60;;;19.60;99.90;;;;;;6077747;23;20436;-79
2021/06/17 05:10:50;;;;;;;37.33;11.00;;;20.00;99.90;;;;;;6069541;23;20415;-79
2021/06/17 05:13:18;;;;;;;40.97;11.00;;;20.10;99.90;;;;;;6069334;23;20433;-79
2021/06/17 05:15:45;;;;;;;40.10;11.20;;;20.20;99.90;;;;;;6069612;23;20436;-82
2021/06/17 05:18:12;;;;;;;43.70;11.17;;;20.50;99.90;;;;;;6070071;23;20483;-79
2021/06/17 05:20:39;;;;;;;47.40;11.33;;;20.90;99.90;;;;;;6068033;23;20398;-79
2021/06/17 05:23:06;;;;;;;51.03;10.70;;;21.50;99.90;;;;;;6069805;23;20456;-79
2021/06/17 05:25:33;;;;;;;55.90;10.83;;;22.40;99.90;;;;;;6070565;23;20435;-79
2021/06/17 05:28:01;;;;;;;58.90;10.83;;;22.90;96.30;;;;;;6069999;23;20495;-80
2021/06/17 05:30:28;;;;;;;62.23;21.87;;;23.90;81.80;;;;;;6078973;23;20447;-80
2021/06/17 05:32:55;;;;;;;75.10;48.13;;;24.20;67.90;;;;;;6069420;23;20943;-81
2021/06/17 05:35:22;;;;;;;87.03;76.73;;;24.70;60.30;;;;;;6068882;23;20383;-80
2021/06/17 05:37:50;;;;;;;99.53;89.63;;;25.20;51.00;;;;;;6069947;23;20383;-79
2021/06/17 05:40:17;;;;;;;112.47;101.93;;;25.80;44.20;;;;;;6070570;23;20400;-78
2021/06/17 05:42:44;;;;;;;82.97;60.60;;;26.60;38.60;;;;;;6069481;23;20387;-83
2021/06/17 05:45:13;;;;;;;88.80;69.97;;;27.10;29.20;;;;;;6079139;23;20466;-79
2021/06/17 05:47:40;;;;;;;113.73;102.83;;;27.50;27.10;;;;;;6069575;23;20379;-78
2021/06/17 05:50:11;;;;;;;98.43;87.83;;;27.50;24.50;;;;;;6068025;23;20408;-79
2021/06/17 05:52:38;;;;;;;105.93;95.03;;;27.70;24.80;;;;;;6070124;23;20407;-80
2021/06/17 05:55:06;;;;;;;174.03;159.83;;;28.10;21.00;;;;;;6069404;23;20901;-80
2021/06/17 05:57:33;;;;;;;369.00;347.53;;;28.30;20.00;;;;;;6069086;23;21066;-81
2021/06/17 05:59:59;;;;;;;101.53;89.33;;;28.20;17.50;;;;;;6069389;23;20471;-80
2021/06/17 06:02:28;;;;;;;78.20;39.13;;;27.90;19.50;;;;;;6069312;23;20475;-81
2021/06/17 06:04:54;;;;;;;76.83;33.73;;;27.20;20.50;;;;;;6067466;23;20380;-80
2021/06/17 06:07:21;;;;;;;74.90;28.50;;;27.20;22.30;;;;;;6069657;23;20522;-80
2021/06/17 06:09:48;;;;;;;71.70;27.10;;;26.70;22.80;;;;;;6079470;23;20408;-79
2021/06/17 06:12:15;;;;;;;73.00;28.90;;;26.30;24.00;;;;;;6069595;23;20383;-80
2021/06/17 06:14:42;;;;;;;70.50;28.67;;;25.90;26.60;;;;;;6069595;23;20426;-80
2021/06/17 06:17:09;;;;;;;80.30;44.50;;;25.60;29.10;;;;;;6069057;23;20462;-80
2021/06/17 06:19:38;;;;;;;80.50;49.67;;;25.50;31.00;;;;;;6067961;23;20852;-79
2021/06/17 06:22:05;;;;;;;78.67;42.03;;;25.30;31.00;;;;;;6069268;23;20466;-80
2021/06/17 06:24:33;;;;;;;88.23;72.43;;;25.20;33.90;;;;;;6069539;23;20383;-80
2021/06/17 06:27:00;;;;;;;98.03;87.87;;;25.20;35.10;;;;;;6069410;23;20438;-80
2021/06/17 06:29:28;;;;;;;119.63;108.57;;;25.30;36.00;;;;;;6069429;23;20383;-81
2021/06/17 06:31:55;;;;;;;171.63;158.63;;;25.60;34.20;;;;;;6069052;23;20387;-81
2021/06/17 06:34:22;;;;;;;97.90;82.57;;;26.10;31.40;;;;;;6067793;23;20870;-81
2021/06/17 06:36:50;;;;;;;96.57;85.10;;;26.70;28.70;;;;;;6068840;23;20871;-81
2021/06/17 06:39:18;;;;;;;80.70;44.43;;;27.30;26.90;;;;;;6068662;23;20924;-83
2021/06/17 06:41:45;;;;;;;79.00;39.23;;;27.80;22.50;;;;;;6069103;23;20422;-82
2021/06/17 06:44:13;;;;;;;83.67;47.63;;;28.00;22.10;;;;;;6079410;23;20427;-83
2021/06/17 06:46:40;;;;;;;82.50;49.13;;;28.20;19.00;;;;;;6068554;23;20532;-82
2021/06/17 06:49:08;;;;;;;86.90;51.00;;;28.30;17.60;;;;;;6067669;23;20416;-82
2021/06/17 06:51:38;;;;;;;86.20;58.97;;;28.50;20.80;;;;;;6068961;23;20735;-83
2021/06/17 06:54:07;;;;;;;88.03;59.93;;;28.40;17.70;;;;;;6069174;23;20480;-82
2021/06/17 07:02:05;;;;;;;104.73;93.37;;;28.90;17.90;;;;;;6150502;23;20465;-80
2021/06/17 07:04:33;;;;;;;127.47;115.97;;;29.00;14.90;;;;;;6155223;23;20402;-79
2021/06/17 07:07:06;;;;;;;129.20;117.33;;;28.90;13.10;;;;;;6156780;23;20439;-84
2021/06/17 07:09:34;;;;;;;126.43;114.70;;;28.90;14.40;;;;;;6155753;23;20497;-84
2021/06/17 07:12:02;;;;;;;137.63;125.77;;;29.10;13.00;;;;;;6156252;23;20429;-81
2021/06/17 07:14:29;;;;;;;125.83;114.00;;;29.20;11.60;;;;;;6156151;23;20377;-82
2021/06/17 07:16:56;;;;;;;127.97;116.37;;;29.40;11.20;;;;;;6155550;23;20459;-82
2021/06/17 07:19:23;;;;;;;130.37;118.67;;;29.80;10.80;;;;;;6154136;23;20398;-82
2021/06/17 07:21:50;;;;;;;99.73;89.07;;;30.00;11.90;;;;;;6165919;23;20492;-81
2021/06/17 07:24:17;;;;;;;99.37;88.70;;;30.10;9.70;;;;;;6165493;23;20402;-82
2021/06/17 07:26:47;;;;;;;107.67;53.93;;;30.30;10.90;;;;;;6155373;23;20500;-83
2021/06/17 07:29:14;;;;;;;83.13;41.23;;;30.30;7.70;;;;;;6155864;23;20769;-80
2021/06/17 07:31:41;;;;;;;78.73;31.30;;;30.30;7.40;;;;;;6155739;23;20413;-80
2021/06/17 07:34:09;;;;;;;78.70;34.40;;;30.70;7.10;;;;;;6154654;23;20409;-79
2021/06/17 07:36:36;;;;;;;80.47;27.53;;;31.00;7.40;;;;;;6156163;23;20413;-79
2021/06/17 07:39:04;;;;;;;77.77;27.10;;;30.90;4.30;;;;;;6165591;23;20481;-81
2021/06/17 07:41:31;;;;;;;78.50;24.50;;;30.90;4.10;;;;;;6156285;23;20373;-82
2021/06/17 07:43:59;;;;;;;77.37;21.77;;;30.60;3.30;;;;;;6155794;23;20732;-82
2021/06/17 07:46:27;;;;;;;74.97;24.30;;;30.90;3.50;;;;;;6156130;23;20529;-84
2021/06/17 07:48:54;;;;;;;76.20;22.67;;;30.70;3.40;;;;;;6155891;23;20489;-84
2021/06/17 07:51:21;;;;;;;76.47;23.77;;;30.90;3.50;;;;;;6154235;23;20400;-81
